createdAt,value
2022-11-29T00:01:32.926Z,16.67
2022-11-29T00:04:01.130Z,15.98
2022-11-29T00:06:31.619Z,15.77
2022-11-29T00:09:06.164Z,16.63
2022-11-29T00:11:56.612Z,16.00
2022-11-29T00:14:24.694Z,16.55
2022-11-29T00:16:54.324Z,15.23
2022-11-29T00:19:22.476Z,15.85
2022-11-29T00:21:52.270Z,15.50
2022-11-29T00:24:22.070Z,14.82
2022-11-29T00:26:49.898Z,15.63
2022-11-29T00:29:18.811Z,15.65
2022-11-29T00:31:46.156Z,15.50
2022-11-29T00:34:15.799Z,16.33
2022-11-29T00:36:43.157Z,15.27
2022-11-29T00:39:13.942Z,16.02
2022-11-29T00:41:41.300Z,16.40
2022-11-29T00:44:15.331Z,15.57
2022-11-29T00:46:48.246Z,15.63
2022-11-29T00:49:15.674Z,15.57
2022-11-29T00:51:42.950Z,16.27
2022-11-29T00:54:12.610Z,14.93
2022-11-29T00:56:39.873Z,16.40
2022-11-29T00:59:07.155Z,15.65
2022-11-29T01:01:36.841Z,15.00
2022-11-29T01:04:04.502Z,14.13
2022-11-29T01:06:31.779Z,14.65
2022-11-29T01:08:59.027Z,14.25
2022-11-29T01:11:27.628Z,14.02
2022-11-29T01:13:58.070Z,14.20
2022-11-29T01:16:26.316Z,14.23
2022-11-29T01:18:53.610Z,14.43
2022-11-29T01:21:23.487Z,14.52
2022-11-29T01:23:56.769Z,14.25
2022-11-29T01:26:27.794Z,15.85
2022-11-29T01:28:56.753Z,15.90
2022-11-29T01:31:36.277Z,15.07
2022-11-29T01:34:05.172Z,14.15
2022-11-29T01:36:36.592Z,15.43
2022-11-29T01:39:05.419Z,14.90
2022-11-29T01:41:35.030Z,15.43
2022-11-29T01:44:28.010Z,14.27
2022-11-29T01:46:56.249Z,15.43
2022-11-29T01:49:30.774Z,15.18
2022-11-29T01:52:01.018Z,14.43
2022-11-29T01:54:30.074Z,15.38
2022-11-29T01:56:59.443Z,15.15
2022-11-29T01:59:30.207Z,14.80
2022-11-29T02:02:04.248Z,14.75
2022-11-29T02:04:37.920Z,14.63
2022-11-29T02:07:08.044Z,14.93
2022-11-29T02:09:37.662Z,14.68
2022-11-29T02:12:21.359Z,15.20
2022-11-29T02:15:10.143Z,15.35
2022-11-29T02:17:52.206Z,14.95
2022-11-29T02:20:52.783Z,14.88
2022-11-29T02:23:39.569Z,15.88
2022-11-29T02:26:24.734Z,14.50
2022-11-29T02:29:08.501Z,15.00
2022-11-29T02:32:00.310Z,16.05
2022-11-29T02:34:53.108Z,15.20
2022-11-29T02:38:03.314Z,16.02
2022-11-29T02:40:51.438Z,16.83
2022-11-29T02:43:37.409Z,15.60
2022-11-29T02:46:24.084Z,16.20
2022-11-29T02:49:00.809Z,17.38
2022-11-29T02:52:00.221Z,17.13
2022-11-29T02:54:53.278Z,15.65
2022-11-29T02:57:43.374Z,16.85
2022-11-29T03:00:13.701Z,16.52
2022-11-29T03:02:55.992Z,16.60
2022-11-29T03:05:29.090Z,17.67
2022-11-29T03:08:35.906Z,18.15
2022-11-29T03:11:40.846Z,17.52
2022-11-29T03:14:25.101Z,17.17
2022-11-29T03:17:23.780Z,18.27
2022-11-29T03:19:51.075Z,18.02
2022-11-29T03:22:42.976Z,18.85
2022-11-29T03:25:18.558Z,18.15
2022-11-29T03:27:57.603Z,18.50
2022-11-29T03:30:25.025Z,18.73
2022-11-29T03:33:25.624Z,18.38
2022-11-29T03:36:10.461Z,19.67
2022-11-29T03:38:47.874Z,19.30
2022-11-29T03:41:38.116Z,19.23
2022-11-29T03:44:53.062Z,19.10
2022-11-29T03:47:28.305Z,19.67
2022-11-29T03:50:05.329Z,19.15
2022-11-29T03:52:35.902Z,19.15
2022-11-29T03:55:29.194Z,19.42
2022-11-29T03:58:06.067Z,18.25
2022-11-29T04:00:53.578Z,19.20
2022-11-29T04:03:55.480Z,19.08
2022-11-29T04:06:36.603Z,18.80
2022-11-29T04:09:28.061Z,19.20
2022-11-29T04:12:10.087Z,20.00
2022-11-29T04:15:05.017Z,18.98
2022-11-29T04:17:50.696Z,19.52
2022-11-29T04:20:43.102Z,18.10
2022-11-29T04:23:47.995Z,19.13
2022-11-29T04:26:39.008Z,21.13
2022-11-29T04:29:27.532Z,20.45
2022-11-29T04:32:10.222Z,20.17
2022-11-29T04:34:56.133Z,18.90
2022-11-29T04:37:23.341Z,19.58
2022-11-29T04:40:25.113Z,19.88
2022-11-29T04:43:13.928Z,20.27
2022-11-29T04:45:56.319Z,19.02
2022-11-29T04:48:29.391Z,20.13
2022-11-29T04:51:04.133Z,19.00
2022-11-29T04:53:38.078Z,19.92
2022-11-29T04:56:29.108Z,19.27
2022-11-29T04:59:24.141Z,20.10
2022-11-29T05:02:23.086Z,19.20
2022-11-29T05:04:59.398Z,19.48
2022-11-29T05:07:54.228Z,20.42
2022-11-29T05:10:36.690Z,20.30
2022-11-29T05:13:28.193Z,21.05
2022-11-29T05:15:55.564Z,19.98
2022-11-29T05:18:47.199Z,19.33
2022-11-29T05:21:19.389Z,20.40
2022-11-29T05:24:05.907Z,20.23
2022-11-29T05:26:46.148Z,19.75
2022-11-29T05:29:30.910Z,19.50
2022-11-29T05:32:17.420Z,19.25
2022-11-29T05:34:59.391Z,18.63
2022-11-29T05:40:46.552Z,19.38
2022-11-29T05:43:16.700Z,20.77
2022-11-29T05:45:52.479Z,19.88
2022-11-29T05:48:45.275Z,20.38
2022-11-29T05:51:32.186Z,19.65
2022-11-29T05:54:21.000Z,20.17
2022-11-29T05:57:09.859Z,20.25
2022-11-29T05:59:39.047Z,19.63
2022-11-29T06:02:27.492Z,20.30
2022-11-29T06:05:04.098Z,19.77
2022-11-29T06:07:53.691Z,19.70
2022-11-29T06:10:33.035Z,20.13
2022-11-29T06:13:10.756Z,19.77
2022-11-29T06:15:44.063Z,21.15
2022-11-29T06:18:26.070Z,19.88
2022-11-29T06:23:29.911Z,20.23
2022-11-29T06:26:25.237Z,20.85
2022-11-29T06:29:19.338Z,20.55
2022-11-29T06:32:15.925Z,19.88
2022-11-29T06:35:35.760Z,20.45
2022-11-29T06:38:27.635Z,20.75
2022-11-29T06:41:01.881Z,20.63
2022-11-29T06:43:33.687Z,20.98
2022-11-29T06:46:26.882Z,20.98
2022-11-29T06:49:03.630Z,21.00
2022-11-29T06:51:58.635Z,20.90
2022-11-29T06:54:41.109Z,20.30
2022-11-29T06:57:28.755Z,20.10
2022-11-29T07:00:28.459Z,20.75
2022-11-29T07:03:14.449Z,20.88
2022-11-29T07:05:46.518Z,20.42
2022-11-29T07:08:19.997Z,21.30
2022-11-29T07:10:50.135Z,20.27
2022-11-29T07:13:18.978Z,20.50
2022-11-29T07:15:54.634Z,20.52
2022-11-29T07:18:48.279Z,21.85
2022-11-29T07:21:27.117Z,20.50
2022-11-29T07:24:27.626Z,21.10
2022-11-29T07:27:07.265Z,21.40
2022-11-29T07:29:52.268Z,20.77
2022-11-29T07:32:28.534Z,20.98
2022-11-29T07:35:19.921Z,19.60
2022-11-29T07:38:14.794Z,20.70
2022-11-29T07:41:05.535Z,21.00
2022-11-29T07:44:05.371Z,19.63
2022-11-29T07:46:34.939Z,21.65
2022-11-29T07:49:02.214Z,21.10
2022-11-29T07:51:29.612Z,22.48
2022-11-29T07:53:56.942Z,21.20
2022-11-29T07:56:24.261Z,20.88
2022-11-29T07:58:51.577Z,21.50
2022-11-29T08:01:18.916Z,20.45
2022-11-29T08:03:46.259Z,20.90
2022-11-29T08:06:13.622Z,21.77
2022-11-29T08:08:44.148Z,20.05
2022-11-29T08:11:12.962Z,20.53
2022-11-29T08:13:40.219Z,22.33
2022-11-29T08:16:07.814Z,21.52
2022-11-29T08:18:36.860Z,21.65
2022-11-29T08:21:07.642Z,22.02
2022-11-29T08:23:37.459Z,21.60
2022-11-29T08:26:04.851Z,21.45
2022-11-29T08:28:32.146Z,20.48
2022-11-29T08:31:06.618Z,21.40
2022-11-29T08:33:42.438Z,21.00
2022-11-29T08:36:15.242Z,22.77
2022-11-29T08:38:42.741Z,22.00
2022-11-29T08:41:12.595Z,21.20
2022-11-29T08:43:40.384Z,21.40
2022-11-29T08:46:07.956Z,20.92
2022-11-29T08:48:36.904Z,21.35
2022-11-29T08:51:05.994Z,21.42
2022-11-29T08:53:42.197Z,22.83
2022-11-29T08:56:53.315Z,21.33
2022-11-29T08:59:00.801Z,21.38
2022-11-29T09:01:29.387Z,21.55
2022-11-29T09:04:00.025Z,21.92
2022-11-29T09:06:40.469Z,21.75
2022-11-29T09:09:07.839Z,21.42
2022-11-29T09:11:36.040Z,21.90
2022-11-29T09:14:08.664Z,21.45
2022-11-29T09:16:37.768Z,21.23
2022-11-29T09:19:05.784Z,21.13
2022-11-29T09:21:36.607Z,20.80
2022-11-29T09:24:09.337Z,21.30
2022-11-29T09:26:38.100Z,20.30
2022-11-29T09:29:06.568Z,21.08
2022-11-29T09:31:35.059Z,20.23
2022-11-29T09:34:02.620Z,19.40
2022-11-29T09:36:33.130Z,20.08
2022-11-29T09:39:02.858Z,20.20
2022-11-29T09:41:33.070Z,18.75
2022-11-29T09:44:33.159Z,19.02
2022-11-29T09:47:19.370Z,20.65
2022-11-29T09:50:09.963Z,20.38
2022-11-29T09:52:51.949Z,20.10
2022-11-29T09:57:50.583Z,19.17
2022-11-29T10:00:22.448Z,19.33
2022-11-29T10:05:50.273Z,19.50
2022-11-29T10:08:41.890Z,19.98
2022-11-29T10:11:21.898Z,18.92
2022-11-29T10:14:02.962Z,19.77
2022-11-29T10:17:08.989Z,20.65
2022-11-29T10:19:52.949Z,19.13
2022-11-29T10:22:53.546Z,19.35
2022-11-29T10:25:25.893Z,19.83
2022-11-29T10:27:53.939Z,19.60
2022-11-29T10:30:21.634Z,20.27
2022-11-29T10:32:57.763Z,19.50
2022-11-29T10:35:30.538Z,19.45
2022-11-29T10:38:31.761Z,19.50
2022-11-29T10:40:52.606Z,20.23
2022-11-29T10:43:20.424Z,20.73
2022-11-29T10:45:53.478Z,19.98
2022-11-29T10:48:22.993Z,18.98
2022-11-29T10:50:52.033Z,19.50
2022-11-29T10:53:36.139Z,19.77
2022-11-29T10:56:17.513Z,19.80
2022-11-29T10:59:07.960Z,18.98
2022-11-29T11:01:42.388Z,21.15
2022-11-29T11:04:22.379Z,25.52
2022-11-29T11:06:57.977Z,18.80
2022-11-29T11:09:35.079Z,18.75
2022-11-29T11:12:16.890Z,19.83
2022-11-29T11:14:45.105Z,19.23
2022-11-29T11:17:26.104Z,17.65
2022-11-29T11:20:04.550Z,18.83
2022-11-29T11:22:36.300Z,18.77
2022-11-29T11:27:37.471Z,17.70
2022-11-29T11:30:07.015Z,18.35
2022-11-29T11:32:34.323Z,19.30
2022-11-29T11:35:02.532Z,19.48
2022-11-29T11:37:35.782Z,18.85
2022-11-29T11:40:29.127Z,18.80
2022-11-29T11:43:02.055Z,19.42
2022-11-29T11:45:36.689Z,19.15
2022-11-29T11:48:15.094Z,19.33
2022-11-29T11:50:52.535Z,19.90
2022-11-29T11:53:36.443Z,18.52
2022-11-29T11:56:12.990Z,20.92
2022-11-29T11:58:53.287Z,19.13
2022-11-29T12:01:27.193Z,18.65
2022-11-29T12:04:15.243Z,19.08
2022-11-29T12:06:52.237Z,19.20
2022-11-29T12:09:19.531Z,18.13
2022-11-29T12:12:00.212Z,18.52
2022-11-29T12:14:42.579Z,18.42
2022-11-29T12:17:22.815Z,17.98
2022-11-29T12:20:04.475Z,19.20
2022-11-29T12:22:46.595Z,18.80
2022-11-29T12:25:21.888Z,18.75
2022-11-29T12:27:50.359Z,18.25
2022-11-29T12:30:19.134Z,19.02
2022-11-29T12:33:20.516Z,18.88
2022-11-29T12:36:07.518Z,18.10
2022-11-29T12:39:01.543Z,18.88
2022-11-29T12:41:40.608Z,18.50
2022-11-29T12:44:35.500Z,19.38
2022-11-29T12:47:38.165Z,18.98
2022-11-29T12:50:50.398Z,18.33
2022-11-29T12:53:36.100Z,18.40
2022-11-29T12:56:27.245Z,18.50
2022-11-29T12:59:33.297Z,19.10
2022-11-29T13:02:09.487Z,18.92
2022-11-29T13:04:52.680Z,18.67
2022-11-29T13:07:25.092Z,19.17
2022-11-29T13:10:18.433Z,17.23
2022-11-29T13:13:07.670Z,17.92
2022-11-29T13:16:08.762Z,17.60
2022-11-29T13:19:01.707Z,18.80
2022-11-29T13:21:37.624Z,17.50
2022-11-29T13:24:16.553Z,18.02
2022-11-29T13:26:44.694Z,19.17
2022-11-29T13:29:18.201Z,19.58
2022-11-29T13:31:50.136Z,18.90
2022-11-29T13:34:28.987Z,19.52
2022-11-29T13:37:08.052Z,19.13
2022-11-29T13:39:47.126Z,18.60
2022-11-29T13:42:24.144Z,19.25
2022-11-29T13:45:28.379Z,19.40
2022-11-29T13:47:59.430Z,18.50
2022-11-29T13:50:40.262Z,18.25
2022-11-29T13:53:23.606Z,19.40
2022-11-29T13:56:01.362Z,18.65
2022-11-29T13:58:28.733Z,18.77
2022-11-29T14:01:07.046Z,18.10
2022-11-29T14:03:48.994Z,17.77
2022-11-29T14:09:17.719Z,18.42
2022-11-29T14:11:42.598Z,19.88
2022-11-29T14:14:31.535Z,17.90
2022-11-29T14:17:00.936Z,20.33
2022-11-29T14:19:33.680Z,18.10
2022-11-29T14:22:07.141Z,18.45
2022-11-29T14:24:37.317Z,19.10
2022-11-29T14:27:10.352Z,18.23
2022-11-29T14:29:49.524Z,19.35
2022-11-29T14:32:33.175Z,18.85
2022-11-29T14:35:12.514Z,19.80
2022-11-29T14:38:01.136Z,19.73
2022-11-29T14:40:40.674Z,19.30
2022-11-29T14:43:23.050Z,19.10
2022-11-29T14:46:26.173Z,19.00
2022-11-29T14:48:56.341Z,19.40
2022-11-29T14:51:28.866Z,19.33
2022-11-29T14:54:16.610Z,19.90
2022-11-29T14:56:45.529Z,19.73
2022-11-29T14:59:51.274Z,20.05
2022-11-29T15:02:37.533Z,19.38
2022-11-29T15:05:19.494Z,18.85
2022-11-29T15:10:38.785Z,18.88
2022-11-29T15:13:11.390Z,19.40
2022-11-29T15:16:09.327Z,20.20
2022-11-29T15:18:42.738Z,18.25
2022-11-29T15:21:34.702Z,19.73
2022-11-29T15:24:06.838Z,18.85
2022-11-29T15:26:36.526Z,20.15
2022-11-29T15:29:18.859Z,19.85
2022-11-29T15:31:51.634Z,19.40
2022-11-29T15:34:23.008Z,20.13
2022-11-29T15:36:50.278Z,20.23
2022-11-29T15:39:35.295Z,19.48
2022-11-29T15:42:22.677Z,20.15
2022-11-29T15:44:53.561Z,20.88
2022-11-29T15:47:25.586Z,19.30
2022-11-29T15:49:54.227Z,19.67
2022-11-29T15:52:35.799Z,19.83
2022-11-29T15:55:06.486Z,20.25
2022-11-29T15:57:43.138Z,20.15
2022-11-29T16:00:24.281Z,22.42
2022-11-29T16:02:54.306Z,21.85
2022-11-29T16:05:25.274Z,20.60
2022-11-29T16:08:00.149Z,21.90
2022-11-29T16:10:40.913Z,21.38
2022-11-29T16:13:31.443Z,22.90
2022-11-29T16:16:19.745Z,22.40
2022-11-29T16:18:48.657Z,20.63
2022-11-29T16:21:28.949Z,22.58
2022-11-29T16:23:57.161Z,21.92
2022-11-29T16:26:36.103Z,21.73
2022-11-29T16:29:03.888Z,22.60
2022-11-29T16:31:34.112Z,22.02
2022-11-29T16:34:27.541Z,23.58
2022-11-29T16:37:14.920Z,22.88
2022-11-29T16:39:46.935Z,21.35
2022-11-29T16:42:18.288Z,22.60
2022-11-29T16:44:50.118Z,22.45
2022-11-29T16:47:25.735Z,21.98
2022-11-29T16:50:02.354Z,20.73
2022-11-29T16:52:32.308Z,21.63
2022-11-29T16:55:04.618Z,22.48
2022-11-29T16:57:32.202Z,22.00
2022-11-29T16:59:59.518Z,22.35
2022-11-29T17:02:29.894Z,22.55
2022-11-29T17:05:02.017Z,23.70
2022-11-29T17:07:36.841Z,22.85
2022-11-29T17:10:11.825Z,22.80
2022-11-29T17:12:42.217Z,22.45
2022-11-29T17:15:13.755Z,23.23
2022-11-29T17:17:43.458Z,23.67
2022-11-29T17:20:12.857Z,22.52
2022-11-29T17:22:40.525Z,22.45
2022-11-29T17:25:08.419Z,24.23
2022-11-29T17:27:36.054Z,23.75
2022-11-29T17:30:05.499Z,23.63
2022-11-29T17:32:35.809Z,23.58
2022-11-29T17:35:03.288Z,23.23
2022-11-29T17:37:31.491Z,22.80
2022-11-29T17:40:03.805Z,22.08
2022-11-29T17:42:33.340Z,22.58
2022-11-29T17:45:00.677Z,22.70
2022-11-29T17:47:30.285Z,22.77
2022-11-29T17:49:58.119Z,23.38
2022-11-29T17:52:25.401Z,24.30
2022-11-29T17:54:52.652Z,25.02
2022-11-29T17:57:19.969Z,24.48
2022-11-29T17:59:47.476Z,24.15
2022-11-29T18:02:17.471Z,23.40
2022-11-29T18:04:44.765Z,23.55
2022-11-29T18:07:13.276Z,23.50
2022-11-29T18:09:43.403Z,24.17
2022-11-29T18:12:10.901Z,23.90
2022-11-29T18:14:39.012Z,22.80
2022-11-29T18:17:06.324Z,22.42
2022-11-29T18:19:33.923Z,21.33
2022-11-29T18:22:02.721Z,22.27
2022-11-29T18:24:29.950Z,23.23
2022-11-29T18:26:57.242Z,22.65
2022-11-29T18:29:28.705Z,22.80
2022-11-29T18:31:58.748Z,23.13
2022-11-29T18:34:28.357Z,22.52
2022-11-29T18:36:55.634Z,21.90
2022-11-29T18:39:24.942Z,21.50
2022-11-29T18:41:52.285Z,20.88
2022-11-29T18:44:30.092Z,23.63
2022-11-29T18:46:57.844Z,22.95
2022-11-29T18:49:25.111Z,21.77
2022-11-29T18:51:52.594Z,22.38
2022-11-29T18:54:22.158Z,24.48
2022-11-29T18:56:50.698Z,23.65
2022-11-29T18:59:18.143Z,23.23
2022-11-29T19:01:49.333Z,22.55
2022-11-29T19:04:21.088Z,23.25
2022-11-29T19:09:21.726Z,22.70
2022-11-29T19:11:49.872Z,23.52
2022-11-29T19:14:17.893Z,22.48
2022-11-29T19:16:47.434Z,22.10
2022-11-29T19:19:14.903Z,23.38
2022-11-29T19:21:45.018Z,22.75
2022-11-29T19:24:14.665Z,23.85
2022-11-29T19:26:47.010Z,22.67
2022-11-29T19:29:14.709Z,22.50
2022-11-29T19:31:42.532Z,23.35
2022-11-29T19:34:10.382Z,22.30
2022-11-29T19:36:42.580Z,22.23
2022-11-29T19:39:12.856Z,21.90
2022-11-29T19:41:43.347Z,22.67
2022-11-29T19:44:10.909Z,22.70
2022-11-29T19:46:44.033Z,22.33
2022-11-29T19:49:12.074Z,21.05
2022-11-29T19:51:39.460Z,22.33
2022-11-29T19:54:09.058Z,22.50
2022-11-29T19:56:36.755Z,21.95
2022-11-29T19:59:04.099Z,21.90
2022-11-29T20:01:40.880Z,23.30
2022-11-29T20:04:10.061Z,23.00
2022-11-29T20:06:37.640Z,23.95
2022-11-29T20:09:04.960Z,22.98
2022-11-29T20:11:32.290Z,22.92
2022-11-29T20:14:01.358Z,22.17
2022-11-29T20:16:30.559Z,23.10
2022-11-29T20:18:59.043Z,24.60
2022-11-29T20:21:29.069Z,25.15
2022-11-29T20:23:57.902Z,24.85
2022-11-29T20:26:27.068Z,23.13
2022-11-29T20:28:54.523Z,26.42
2022-11-29T20:31:22.999Z,24.98
2022-11-29T20:33:52.884Z,23.80
2022-11-29T20:36:58.160Z,22.77
2022-11-29T20:39:48.257Z,23.75
2022-11-29T20:43:02.105Z,23.10
2022-11-29T20:45:29.834Z,21.95
2022-11-29T20:48:03.823Z,21.67
2022-11-29T20:50:32.186Z,21.40
2022-11-29T20:53:25.254Z,20.92
2022-11-29T20:55:52.578Z,21.77
2022-11-29T20:58:19.999Z,21.52
2022-11-29T21:00:49.526Z,20.80
2022-11-29T21:03:18.616Z,21.27
2022-11-29T21:05:46.203Z,20.05
2022-11-29T21:08:14.977Z,20.02
2022-11-29T21:10:42.354Z,21.13
2022-11-29T21:13:11.750Z,20.52
2022-11-29T21:15:42.014Z,20.15
2022-11-29T21:18:26.320Z,19.67
2022-11-29T21:21:16.368Z,20.33
2022-11-29T21:24:02.470Z,19.63
2022-11-29T21:26:41.796Z,18.65
2022-11-29T21:29:18.357Z,21.33
2022-11-29T21:31:47.898Z,20.17
2022-11-29T21:34:15.388Z,20.05
2022-11-29T21:36:44.034Z,20.85
2022-11-29T21:39:14.818Z,20.88
2022-11-29T21:41:42.228Z,20.92
2022-11-29T21:44:09.608Z,19.98
2022-11-29T21:46:37.054Z,20.52
2022-11-29T21:49:08.840Z,21.80
2022-11-29T21:54:03.359Z,19.65
2022-11-29T21:56:30.853Z,21.75
2022-11-29T21:58:58.184Z,21.25
2022-11-29T22:01:27.525Z,21.08
2022-11-29T22:03:59.850Z,18.63
2022-11-29T22:06:30.287Z,20.38
2022-11-29T22:08:57.626Z,21.35
2022-11-29T22:11:31.117Z,19.08
2022-11-29T22:14:17.089Z,19.90
2022-11-29T22:16:47.430Z,20.48
2022-11-29T22:19:17.521Z,19.95
2022-11-29T22:21:47.432Z,20.02
2022-11-29T22:24:19.083Z,19.73
2022-11-29T22:26:50.185Z,20.25
2022-11-29T22:29:17.967Z,21.02
2022-11-29T22:31:47.354Z,19.77
2022-11-29T22:34:14.885Z,20.98
2022-11-29T22:36:42.686Z,20.98
2022-11-29T22:39:10.149Z,20.55
2022-11-29T22:41:39.338Z,20.27
2022-11-29T22:44:07.055Z,20.60
2022-11-29T22:46:37.585Z,20.63
2022-11-29T22:49:05.004Z,19.23
2022-11-29T22:51:34.903Z,20.35
2022-11-29T22:54:05.194Z,20.02
2022-11-29T22:56:35.345Z,20.13
2022-11-29T22:59:03.489Z,19.17
2022-11-29T23:01:33.578Z,20.20
2022-11-29T23:04:03.963Z,21.13
2022-11-29T23:06:33.914Z,22.15
2022-11-29T23:09:22.442Z,19.30
2022-11-29T23:11:54.283Z,20.42
2022-11-29T23:14:22.753Z,20.17
2022-11-29T23:16:52.579Z,20.30
2022-11-29T23:19:20.709Z,20.75
2022-11-29T23:21:48.086Z,20.75
2022-11-29T23:24:15.814Z,21.25
2022-11-29T23:26:45.653Z,20.48
2022-11-29T23:29:20.565Z,20.67
2022-11-29T23:31:48.308Z,21.27
2022-11-29T23:34:16.072Z,20.30
2022-11-29T23:36:51.181Z,20.50
2022-11-29T23:39:20.608Z,21.27
2022-11-29T23:41:47.939Z,21.27
2022-11-29T23:44:15.184Z,20.20
2022-11-29T23:46:42.467Z,20.90
2022-11-29T23:49:09.712Z,20.83
2022-11-29T23:51:39.091Z,21.33
2022-11-29T23:54:08.961Z,20.35
2022-11-29T23:56:36.235Z,20.67
2022-11-29T23:59:03.559Z,21.20
